To NAV CANADA Home Page Login to a new session Search on AWWS site Feedback and Comments Disclaimer Vers la page française équivalente Tips FAQ What's new on the site To the Forecasts and Observations / NOTAM section To "File a Flight Plan" website Publications and other links Update of the User's profile FIC Telephone Numbers My Weather Data Folder Route Weather Data Regional Weather Data Local Weather Data To the Forecasts and Observations / NOTAM section
Request Generated 05/22/2015 at 15:59:47 UTC . Weather information available at that time is displayed.

METAR/TAF

KITCHENER/WATERLOO/ON    (show WxCam)

METAR CYKF 221500Z AUTO 31009G17KT 270V340 9SM FEW055 13/02 A3007 RMK
SLP184=
METAR CYKF 221400Z AUTO 31005KT 270V020 9SM CLR 12/02 A3006 RMK
SLP180=
METAR CYKF 221300Z AUTO 33004KT 220V010 9SM CLR 09/02 A3004 RMK
SLP175=

TAF CYKF 221338Z 2214/2302 33004KT P6SM SKC
BECMG 2215/2217 32012G22KT
RMK FCST BASED ON AUTO OBS. NXT FCST BY 222000Z=
Your time UTC time
Weather data provided by Environment Canada and NAV CANADA